createdAt,value
2022-10-31T00:00:27.869Z,85.19
2022-10-31T00:03:14.245Z,85.40
2022-10-31T00:05:42.889Z,85.27
2022-10-31T00:08:09.201Z,84.91
2022-10-31T00:10:38.431Z,85.16
2022-10-31T00:13:04.861Z,84.81
2022-10-31T00:15:33.816Z,84.89
2022-10-31T00:18:00.424Z,84.85
2022-10-31T00:20:26.908Z,84.64
2022-10-31T00:22:53.373Z,84.77
2022-10-31T00:25:20.848Z,84.69
2022-10-31T00:27:47.144Z,84.57
2022-10-31T00:30:13.733Z,85.02
2022-10-31T00:32:40.896Z,85.05
2022-10-31T00:35:07.489Z,85.44
2022-10-31T00:37:33.704Z,84.67
2022-10-31T00:40:00.035Z,84.79
2022-10-31T00:42:26.327Z,84.68
2022-10-31T00:44:52.701Z,84.54
2022-10-31T00:47:20.014Z,84.42
2022-10-31T00:49:46.480Z,84.65
2022-10-31T00:52:12.821Z,84.34
2022-10-31T00:54:39.184Z,84.45
2022-10-31T00:57:05.421Z,84.72
2022-10-31T00:59:31.649Z,84.66
2022-10-31T01:01:58.010Z,84.88
2022-10-31T01:04:24.678Z,85.09
2022-10-31T01:06:50.961Z,85.63
2022-10-31T01:09:17.240Z,85.61
2022-10-31T01:11:43.575Z,85.86
2022-10-31T01:14:10.251Z,85.45
2022-10-31T01:16:36.601Z,85.48
2022-10-31T01:19:03.310Z,85.20
2022-10-31T01:21:30.031Z,84.78
2022-10-31T01:23:59.672Z,84.79
2022-10-31T01:26:28.495Z,84.82
2022-10-31T01:29:09.286Z,85.15
2022-10-31T01:31:38.705Z,85.10
2022-10-31T01:34:06.863Z,84.94
2022-10-31T01:36:35.657Z,84.84
2022-10-31T01:39:07.895Z,84.99
2022-10-31T01:41:38.192Z,84.88
2022-10-31T01:44:13.761Z,84.61
2022-10-31T01:46:42.931Z,84.63
2022-10-31T01:49:18.914Z,84.83
2022-10-31T01:51:56.698Z,84.67
2022-10-31T01:54:27.165Z,84.61
2022-10-31T01:56:56.699Z,84.59
2022-10-31T01:59:25.735Z,84.37
2022-10-31T02:01:52.893Z,84.66
2022-10-31T02:04:21.996Z,84.47
2022-10-31T02:06:55.309Z,84.47
2022-10-31T02:09:24.353Z,84.69
2022-10-31T02:11:57.550Z,85.18
2022-10-31T02:14:29.729Z,85.50
2022-10-31T02:16:56.564Z,85.23
2022-10-31T02:20:09.661Z,85.27
2022-10-31T02:23:23.337Z,85.75
2022-10-31T02:26:08.031Z,86.18
2022-10-31T02:28:34.375Z,86.45
2022-10-31T02:31:12.770Z,86.75
2022-10-31T02:33:52.592Z,86.66
2022-10-31T02:36:28.896Z,86.25
2022-10-31T02:39:02.455Z,86.49
2022-10-31T02:41:52.906Z,87.18
2022-10-31T02:44:29.822Z,87.10
2022-10-31T02:47:14.643Z,87.52
2022-10-31T02:49:54.461Z,88.11
2022-10-31T02:52:24.012Z,87.25
2022-10-31T02:54:52.302Z,86.86
2022-10-31T02:57:26.110Z,86.46
2022-10-31T03:00:00.693Z,87.08
2022-10-31T03:02:33.376Z,87.07
2022-10-31T03:05:18.012Z,86.66
2022-10-31T03:08:05.076Z,86.71
2022-10-31T03:11:06.846Z,86.84
2022-10-31T03:13:41.404Z,86.53
2022-10-31T03:16:07.839Z,86.47
2022-10-31T03:18:40.323Z,86.49
2022-10-31T03:21:37.836Z,86.42
2022-10-31T03:24:07.030Z,86.60
2022-10-31T03:26:38.680Z,86.78
2022-10-31T03:29:11.401Z,87.03
2022-10-31T03:31:57.567Z,86.92
2022-10-31T03:34:24.280Z,86.95
2022-10-31T03:36:55.336Z,86.82
2022-10-31T03:39:23.762Z,86.72
2022-10-31T03:41:56.697Z,86.58
2022-10-31T03:44:25.625Z,86.47
2022-10-31T03:46:58.118Z,86.65
2022-10-31T03:49:24.733Z,87.15
2022-10-31T03:51:56.789Z,87.55
2022-10-31T03:54:30.461Z,87.13
2022-10-31T03:57:05.784Z,86.71
2022-10-31T04:00:02.096Z,86.86
2022-10-31T04:02:33.161Z,87.81
2022-10-31T04:05:01.698Z,87.76
2022-10-31T04:07:32.863Z,89.24
2022-10-31T04:10:04.766Z,88.94
2022-10-31T04:12:33.111Z,88.24
2022-10-31T04:15:30.629Z,88.13
2022-10-31T04:17:59.974Z,87.98
2022-10-31T04:20:35.609Z,87.67
2022-10-31T04:23:03.106Z,87.48
2022-10-31T04:25:30.766Z,86.99
2022-10-31T04:27:58.216Z,87.37
2022-10-31T04:30:24.797Z,87.77
2022-10-31T04:32:51.057Z,87.98
2022-10-31T04:35:17.690Z,88.41
2022-10-31T04:37:44.041Z,88.73
2022-10-31T04:40:10.994Z,88.18
2022-10-31T04:42:55.154Z,88.67
2022-10-31T04:45:21.783Z,88.61
2022-10-31T04:47:50.751Z,88.72
2022-10-31T04:50:17.178Z,88.30
2022-10-31T04:52:45.758Z,88.13
2022-10-31T04:55:14.466Z,87.81
2022-10-31T04:57:59.796Z,87.30
2022-10-31T05:00:26.868Z,87.02
2022-10-31T05:02:55.702Z,87.01
2022-10-31T05:05:29.351Z,87.04
2022-10-31T05:07:55.766Z,87.09
2022-10-31T05:10:27.695Z,87.30
2022-10-31T05:12:57.147Z,87.39
2022-10-31T05:15:46.837Z,86.77
2022-10-31T05:18:42.253Z,86.80
2022-10-31T05:21:20.349Z,86.53
2022-10-31T05:23:55.281Z,86.26
2022-10-31T05:26:23.657Z,86.35
2022-10-31T05:28:50.941Z,86.40
2022-10-31T05:31:17.275Z,86.68
2022-10-31T05:33:43.606Z,87.08
2022-10-31T05:36:28.137Z,87.66
2022-10-31T05:38:59.296Z,88.80
2022-10-31T05:41:33.655Z,89.01
2022-10-31T05:44:10.002Z,88.14
2022-10-31T05:46:48.297Z,88.45
2022-10-31T05:49:43.190Z,90.45
2022-10-31T05:52:25.534Z,89.80
2022-10-31T05:54:58.197Z,89.46
2022-10-31T05:57:24.777Z,89.35
2022-10-31T05:59:55.073Z,89.15
2022-10-31T06:02:22.073Z,89.26
2022-10-31T06:05:10.834Z,89.60
2022-10-31T06:07:37.154Z,88.91
2022-10-31T06:10:05.847Z,88.93
2022-10-31T06:12:32.411Z,89.46
2022-10-31T06:15:11.716Z,90.51
2022-10-31T06:17:37.956Z,89.94
2022-10-31T06:20:21.764Z,90.19
2022-10-31T06:22:55.910Z,90.14
2022-10-31T06:25:22.629Z,90.34
2022-10-31T06:27:49.676Z,90.04
2022-10-31T06:30:16.285Z,90.61
2022-10-31T06:32:44.927Z,90.90
2022-10-31T06:35:11.367Z,90.37
2022-10-31T06:37:39.542Z,90.86
2022-10-31T06:40:24.204Z,90.60
2022-10-31T06:43:07.762Z,90.39
2022-10-31T06:45:34.757Z,91.05
2022-10-31T06:48:17.664Z,90.52
2022-10-31T06:51:20.047Z,90.49
2022-10-31T06:53:47.241Z,90.72
2022-10-31T06:56:13.826Z,90.78
2022-10-31T06:58:44.592Z,91.40
2022-10-31T07:01:11.285Z,90.63
2022-10-31T07:03:37.571Z,90.91
2022-10-31T07:06:04.014Z,91.06
2022-10-31T07:08:32.089Z,90.79
2022-10-31T07:10:58.487Z,91.24
2022-10-31T07:13:25.932Z,91.40
2022-10-31T07:16:01.470Z,91.28
2022-10-31T07:18:28.235Z,91.95
2022-10-31T07:20:54.492Z,91.53
2022-10-31T07:23:21.183Z,91.39
2022-10-31T07:25:59.441Z,91.09
2022-10-31T07:28:31.733Z,91.73
2022-10-31T07:30:59.225Z,91.04
2022-10-31T07:33:26.620Z,91.25
2022-10-31T07:36:18.875Z,91.45
2022-10-31T07:38:45.271Z,91.62
2022-10-31T07:41:11.580Z,91.23
2022-10-31T07:43:41.500Z,91.16
2022-10-31T07:46:16.833Z,90.49
2022-10-31T07:49:01.972Z,90.42
2022-10-31T07:51:47.358Z,90.39
2022-10-31T07:54:45.888Z,90.52
2022-10-31T07:57:12.164Z,90.08
2022-10-31T07:59:38.604Z,89.61
2022-10-31T08:02:05.423Z,89.48
2022-10-31T08:04:31.768Z,89.57
2022-10-31T08:07:17.396Z,89.72
2022-10-31T08:09:48.347Z,89.57
2022-10-31T08:12:19.828Z,89.68
2022-10-31T08:14:46.494Z,89.15
2022-10-31T08:17:13.646Z,88.53
2022-10-31T08:19:45.789Z,88.28
2022-10-31T08:22:13.854Z,88.12
2022-10-31T08:27:06.332Z,88.74
2022-10-31T08:29:32.662Z,88.79
2022-10-31T08:31:59.241Z,88.69
2022-10-31T08:34:43.964Z,88.43
2022-10-31T08:37:28.623Z,88.28
2022-10-31T08:39:55.404Z,88.45
2022-10-31T08:42:21.917Z,88.47
2022-10-31T08:44:48.415Z,88.20
2022-10-31T08:47:14.815Z,87.64
2022-10-31T08:49:41.340Z,87.41
2022-10-31T08:52:12.035Z,87.11
2022-10-31T08:54:40.825Z,87.35
2022-10-31T08:57:33.481Z,87.17
2022-10-31T08:59:59.775Z,86.88
2022-10-31T09:02:46.232Z,86.45
2022-10-31T09:05:13.592Z,86.65
2022-10-31T09:07:39.863Z,86.42
2022-10-31T09:10:06.589Z,86.31
2022-10-31T09:12:35.100Z,86.50
2022-10-31T09:15:19.972Z,86.76
2022-10-31T09:17:55.936Z,86.90
2022-10-31T09:20:39.830Z,86.35
2022-10-31T09:23:08.897Z,85.75
2022-10-31T09:25:38.374Z,84.94
2022-10-31T09:28:32.812Z,84.24
2022-10-31T09:31:04.245Z,84.31
2022-10-31T09:33:48.924Z,84.12
2022-10-31T09:36:36.638Z,84.24
2022-10-31T09:39:03.697Z,84.07
2022-10-31T09:42:01.918Z,83.87
2022-10-31T09:44:44.751Z,84.05
2022-10-31T09:47:27.185Z,84.11
2022-10-31T09:50:48.576Z,84.12
2022-10-31T09:53:53.201Z,83.99
2022-10-31T09:56:23.148Z,83.97
2022-10-31T09:58:58.498Z,84.17
2022-10-31T10:02:06.672Z,84.65
2022-10-31T10:04:59.815Z,85.16
2022-10-31T10:07:33.277Z,85.21
2022-10-31T10:10:50.904Z,85.51
2022-10-31T10:13:32.130Z,85.29
2022-10-31T10:16:26.270Z,85.28
2022-10-31T10:19:14.560Z,86.14
2022-10-31T10:21:55.916Z,86.21
2022-10-31T10:24:33.986Z,86.37
2022-10-31T10:27:07.151Z,86.31
2022-10-31T10:29:43.293Z,86.40
2022-10-31T10:32:22.786Z,86.28
2022-10-31T10:34:55.374Z,86.53
2022-10-31T10:37:31.129Z,86.87
2022-10-31T10:40:22.723Z,87.07
2022-10-31T10:43:24.142Z,86.94
2022-10-31T10:46:18.478Z,87.04
2022-10-31T10:48:56.068Z,86.98
2022-10-31T10:52:19.249Z,87.13
2022-10-31T10:54:42.076Z,87.78
2022-10-31T10:57:23.060Z,87.69
2022-10-31T10:59:51.477Z,87.79
2022-10-31T11:02:31.322Z,88.08
2022-10-31T11:05:00.777Z,88.03
2022-10-31T11:07:38.225Z,88.29
2022-10-31T11:10:13.372Z,88.19
2022-10-31T11:12:40.440Z,88.26
2022-10-31T11:15:27.887Z,87.96
2022-10-31T11:17:56.375Z,87.84
2022-10-31T11:20:36.266Z,88.18
2022-10-31T11:23:21.678Z,88.14
2022-10-31T11:25:50.820Z,88.20
2022-10-31T11:28:17.376Z,88.34
2022-10-31T11:30:47.538Z,88.11
2022-10-31T11:33:18.824Z,88.24
2022-10-31T11:35:45.310Z,87.88
2022-10-31T11:38:18.556Z,87.96
2022-10-31T11:41:00.719Z,88.31
2022-10-31T11:43:27.820Z,88.53
2022-10-31T11:45:54.387Z,88.76
2022-10-31T11:48:24.388Z,88.70
2022-10-31T11:50:54.820Z,88.81
2022-10-31T11:53:28.548Z,88.18
2022-10-31T11:56:15.176Z,88.27
2022-10-31T11:58:42.036Z,88.68
2022-10-31T12:01:24.730Z,88.88
2022-10-31T12:04:14.044Z,88.76
2022-10-31T12:06:43.156Z,88.85
2022-10-31T12:09:33.180Z,88.64
2022-10-31T12:12:27.034Z,88.96
2022-10-31T12:15:27.955Z,88.86
2022-10-31T12:18:12.692Z,88.90
2022-10-31T12:21:06.826Z,89.02
2022-10-31T12:23:54.626Z,88.91
2022-10-31T12:26:42.419Z,89.21
2022-10-31T12:29:17.497Z,88.95
2022-10-31T12:32:04.444Z,88.93
2022-10-31T12:34:52.463Z,89.21
2022-10-31T12:37:37.633Z,89.36
2022-10-31T12:40:12.672Z,90.02
2022-10-31T12:43:14.503Z,89.35
2022-10-31T12:45:57.940Z,89.39
2022-10-31T12:48:27.191Z,89.46
2022-10-31T12:51:16.552Z,89.85
2022-10-31T12:53:54.420Z,89.61
2022-10-31T12:56:45.219Z,89.75
2022-10-31T12:59:34.228Z,89.46
2022-10-31T13:02:36.040Z,89.85
2022-10-31T13:05:06.332Z,89.82
2022-10-31T13:07:47.943Z,90.15
2022-10-31T13:10:23.129Z,89.92
2022-10-31T13:12:54.218Z,89.60
2022-10-31T13:15:25.522Z,89.67
2022-10-31T13:18:23.353Z,89.54
2022-10-31T13:20:54.790Z,89.36
2022-10-31T13:23:49.918Z,89.30
2022-10-31T13:29:24.716Z,89.13
2022-10-31T13:31:55.102Z,88.88
2022-10-31T13:34:34.848Z,88.88
2022-10-31T13:37:31.809Z,89.50
2022-10-31T13:40:39.282Z,89.38
2022-10-31T13:43:31.555Z,89.58
2022-10-31T13:45:59.180Z,89.31
2022-10-31T13:48:26.759Z,89.28
2022-10-31T13:51:00.836Z,89.39
2022-10-31T13:53:57.399Z,89.51
2022-10-31T13:56:31.569Z,89.55
2022-10-31T13:59:02.429Z,89.67
2022-10-31T14:01:32.376Z,89.82
2022-10-31T14:04:14.090Z,89.87
2022-10-31T14:06:52.249Z,89.66
2022-10-31T14:09:24.623Z,89.50
2022-10-31T14:11:53.205Z,89.88
2022-10-31T14:14:24.502Z,90.25
2022-10-31T14:16:58.659Z,90.46
2022-10-31T14:19:27.303Z,90.45
2022-10-31T14:21:55.014Z,90.66
2022-10-31T14:24:25.698Z,90.68
2022-10-31T14:26:58.538Z,90.46
2022-10-31T14:29:35.561Z,90.52
2022-10-31T14:32:28.456Z,90.46
2022-10-31T14:34:58.547Z,90.34
2022-10-31T14:37:35.045Z,90.38
2022-10-31T14:40:17.687Z,90.52
2022-10-31T14:42:57.171Z,90.51
2022-10-31T14:45:46.952Z,90.38
2022-10-31T14:48:36.289Z,90.00
2022-10-31T14:51:29.673Z,89.80
2022-10-31T14:53:58.493Z,89.80
2022-10-31T14:56:29.816Z,90.26
2022-10-31T14:59:02.138Z,90.32
2022-10-31T15:01:34.472Z,90.54
2022-10-31T15:07:21.680Z,90.61
2022-10-31T15:10:04.092Z,90.63
2022-10-31T15:12:34.553Z,90.62
2022-10-31T15:15:18.325Z,90.86
2022-10-31T15:17:53.994Z,90.81
2022-10-31T15:20:25.355Z,90.97
2022-10-31T15:22:55.692Z,90.73
2022-10-31T15:25:26.629Z,90.32
2022-10-31T15:27:54.416Z,89.95
2022-10-31T15:30:27.988Z,89.93
2022-10-31T15:32:58.615Z,90.28
2022-10-31T15:35:30.228Z,90.45
2022-10-31T15:38:00.548Z,90.45
2022-10-31T15:40:29.228Z,90.43
2022-10-31T15:43:02.882Z,90.37
2022-10-31T15:45:31.644Z,90.36
2022-10-31T15:48:12.530Z,90.52
2022-10-31T15:50:46.356Z,90.71
2022-10-31T15:53:36.207Z,90.61
2022-10-31T15:56:08.542Z,90.41
2022-10-31T15:58:45.060Z,90.37
2022-10-31T16:01:28.394Z,89.96
2022-10-31T16:04:02.208Z,89.86
2022-10-31T16:06:35.450Z,90.09
2022-10-31T16:09:05.409Z,90.03
2022-10-31T16:11:38.860Z,89.92
2022-10-31T16:14:07.124Z,89.75
2022-10-31T16:16:43.072Z,89.55
2022-10-31T16:19:22.452Z,89.35
2022-10-31T16:21:54.654Z,89.28
2022-10-31T16:24:32.781Z,89.62
2022-10-31T16:27:16.436Z,89.92
2022-10-31T16:29:46.921Z,90.07
2022-10-31T16:32:31.868Z,90.23
2022-10-31T16:35:00.392Z,90.34
2022-10-31T16:37:28.072Z,90.88
2022-10-31T16:39:55.726Z,91.05
2022-10-31T16:42:23.704Z,90.97
2022-10-31T16:44:51.438Z,91.13
2022-10-31T16:47:21.161Z,91.19
2022-10-31T16:49:51.111Z,91.03
2022-10-31T16:52:19.181Z,90.89
2022-10-31T16:54:46.983Z,91.10
2022-10-31T16:57:18.503Z,91.33
2022-10-31T16:59:52.296Z,91.31
2022-10-31T17:02:20.324Z,91.18
2022-10-31T17:04:50.809Z,91.03
2022-10-31T17:07:21.675Z,90.96
2022-10-31T17:09:49.271Z,90.94
2022-10-31T17:12:21.471Z,90.83
2022-10-31T17:14:52.371Z,90.77
2022-10-31T17:17:20.118Z,90.65
2022-10-31T17:19:47.823Z,90.68
2022-10-31T17:22:15.621Z,90.69
2022-10-31T17:24:43.777Z,90.75
2022-10-31T17:27:11.631Z,90.69
2022-10-31T17:29:39.392Z,90.76
2022-10-31T17:32:07.018Z,90.58
2022-10-31T17:34:34.677Z,90.29
2022-10-31T17:37:02.320Z,90.11
2022-10-31T17:39:30.026Z,89.94
2022-10-31T17:41:57.800Z,90.00
2022-10-31T17:44:25.475Z,90.17
2022-10-31T17:46:53.157Z,90.10
2022-10-31T17:49:21.783Z,90.11
2022-10-31T17:51:49.512Z,89.84
2022-10-31T17:54:18.932Z,89.90
2022-10-31T17:56:46.711Z,89.99
2022-10-31T17:59:14.562Z,90.50
2022-10-31T18:01:44.452Z,90.65
2022-10-31T18:04:12.411Z,90.57
2022-10-31T18:06:40.176Z,90.34
2022-10-31T18:09:07.994Z,90.40
2022-10-31T18:11:35.706Z,90.64
2022-10-31T18:14:03.536Z,90.96
2022-10-31T18:16:31.360Z,91.00
2022-10-31T18:19:01.935Z,90.95
2022-10-31T18:21:29.872Z,91.06
2022-10-31T18:23:59.555Z,90.93
2022-10-31T18:26:28.333Z,90.94
2022-10-31T18:28:56.090Z,90.96
2022-10-31T18:31:24.728Z,91.16
2022-10-31T18:33:54.703Z,91.30
2022-10-31T18:36:23.331Z,91.17
2022-10-31T18:38:51.078Z,90.85
2022-10-31T18:41:19.219Z,90.66
2022-10-31T18:43:48.175Z,90.60
2022-10-31T18:46:17.743Z,90.68
2022-10-31T18:48:46.466Z,90.72
2022-10-31T18:51:14.822Z,90.71
2022-10-31T18:53:42.566Z,90.56
2022-10-31T18:56:11.368Z,90.75
2022-10-31T18:58:39.221Z,90.89
2022-10-31T19:01:08.888Z,90.98
2022-10-31T19:03:37.370Z,91.19
2022-10-31T19:06:06.188Z,91.26
2022-10-31T19:08:34.336Z,91.23
2022-10-31T19:11:12.898Z,91.08
2022-10-31T19:13:41.849Z,91.01
2022-10-31T19:16:15.235Z,91.00
2022-10-31T19:18:44.017Z,91.29
2022-10-31T19:21:16.687Z,91.61
2022-10-31T19:23:45.375Z,91.55
2022-10-31T19:26:14.204Z,91.19
2022-10-31T19:28:42.046Z,91.12
2022-10-31T19:31:10.888Z,90.97
2022-10-31T19:33:39.155Z,91.03
2022-10-31T19:36:12.159Z,91.06
2022-10-31T19:38:42.322Z,90.83
2022-10-31T19:41:13.311Z,90.82
2022-10-31T19:43:41.771Z,90.40
2022-10-31T19:46:22.125Z,90.42
2022-10-31T19:48:55.594Z,90.32
2022-10-31T19:51:23.438Z,90.27
2022-10-31T19:53:52.263Z,89.85
2022-10-31T19:56:22.784Z,89.69
2022-10-31T19:58:50.430Z,89.48
2022-10-31T20:01:23.423Z,89.62
2022-10-31T20:03:51.752Z,89.64
2022-10-31T20:06:30.717Z,89.76
2022-10-31T20:08:59.641Z,89.52
2022-10-31T20:11:28.672Z,89.27
2022-10-31T20:13:58.284Z,89.02
2022-10-31T20:16:27.350Z,88.97
2022-10-31T20:18:56.143Z,89.21
2022-10-31T20:21:26.450Z,89.19
2022-10-31T20:24:02.320Z,89.26
2022-10-31T20:26:31.625Z,89.07
2022-10-31T20:29:01.060Z,88.94
2022-10-31T20:31:32.066Z,89.22
2022-10-31T20:34:00.151Z,89.27
2022-10-31T20:36:29.577Z,89.33
2022-10-31T20:38:58.572Z,89.26
2022-10-31T20:41:26.879Z,89.14
2022-10-31T20:43:54.790Z,89.23
2022-10-31T20:46:25.544Z,89.45
2022-10-31T20:48:54.199Z,89.59
2022-10-31T20:51:25.066Z,89.68
2022-10-31T20:53:54.028Z,89.18
2022-10-31T20:56:23.456Z,88.97
2022-10-31T20:58:52.035Z,88.99
2022-10-31T21:01:21.991Z,89.09
2022-10-31T21:03:50.711Z,89.13
2022-10-31T21:06:20.186Z,89.12
2022-10-31T21:08:47.829Z,89.05
2022-10-31T21:11:18.123Z,88.79
2022-10-31T21:13:47.667Z,88.64
2022-10-31T21:16:18.085Z,88.83
2022-10-31T21:18:47.058Z,89.16
2022-10-31T21:21:18.148Z,89.12
2022-10-31T21:23:47.025Z,88.82
2022-10-31T21:26:23.382Z,88.68
2022-10-31T21:28:53.955Z,88.57
2022-10-31T21:31:21.875Z,88.67
2022-10-31T21:33:50.083Z,88.77
2022-10-31T21:36:17.722Z,88.67
2022-10-31T21:38:50.080Z,88.57
2022-10-31T21:41:18.754Z,88.68
2022-10-31T21:43:48.192Z,88.80
2022-10-31T21:46:17.803Z,88.95
2022-10-31T21:48:45.949Z,89.26
2022-10-31T21:51:22.304Z,89.35
2022-10-31T21:54:09.691Z,89.37
2022-10-31T21:56:37.917Z,89.58
2022-10-31T21:59:06.557Z,89.52
2022-10-31T22:01:35.820Z,89.25
2022-10-31T22:04:04.267Z,89.53
2022-10-31T22:06:32.237Z,89.80
2022-10-31T22:09:03.518Z,90.15
2022-10-31T22:11:31.571Z,90.09
2022-10-31T22:14:00.595Z,89.79
2022-10-31T22:16:30.307Z,89.74
2022-10-31T22:18:59.953Z,89.64
2022-10-31T22:21:28.743Z,89.63
2022-10-31T22:24:01.864Z,89.73
2022-10-31T22:26:33.186Z,89.78
2022-10-31T22:29:03.963Z,89.77
2022-10-31T22:31:33.615Z,89.94
2022-10-31T22:34:01.569Z,89.85
2022-10-31T22:36:30.851Z,89.65
2022-10-31T22:38:58.951Z,89.68
2022-10-31T22:41:30.727Z,89.57
2022-10-31T22:43:59.179Z,89.32
2022-10-31T22:46:29.921Z,89.08
2022-10-31T22:49:01.315Z,88.88
2022-10-31T22:51:38.259Z,88.97
2022-10-31T22:54:09.918Z,89.22
2022-10-31T22:56:38.329Z,89.29
2022-10-31T22:59:06.431Z,89.31
2022-10-31T23:01:35.011Z,89.59
2022-10-31T23:04:03.157Z,89.76
2022-10-31T23:06:32.699Z,90.30
2022-10-31T23:09:02.181Z,90.29
2022-10-31T23:11:33.279Z,90.24
2022-10-31T23:14:09.578Z,90.38
2022-10-31T23:16:40.303Z,90.24
2022-10-31T23:19:09.354Z,89.85
2022-10-31T23:21:57.521Z,89.55
2022-10-31T23:24:25.408Z,89.79
2022-10-31T23:27:07.704Z,89.73
2022-10-31T23:29:45.543Z,89.85
2022-10-31T23:32:19.158Z,89.93
2022-10-31T23:34:49.474Z,89.76
2022-10-31T23:37:19.326Z,89.57
2022-10-31T23:39:47.786Z,89.55
2022-10-31T23:42:16.027Z,89.58
2022-10-31T23:44:43.697Z,89.66
2022-10-31T23:47:11.908Z,89.72
2022-10-31T23:49:39.659Z,89.68
2022-10-31T23:52:07.975Z,89.56
2022-10-31T23:54:35.768Z,89.58
2022-10-31T23:57:04.025Z,89.59
2022-10-31T23:59:32.851Z,89.70
